sensor_id;sensor_type;location;lat;lon;timestamp;P1;durP1;ratioP1;P2;durP2;ratioP2
21903;SDS011;11116;51.554;7.812;2022-10-01T00:01:05;2.88;;;2.58;;
21903;SDS011;11116;51.554;7.812;2022-10-01T00:03:34;2.92;;;2.55;;
21903;SDS011;11116;51.554;7.812;2022-10-01T00:06:03;5.70;;;2.78;;
21903;SDS011;11116;51.554;7.812;2022-10-01T00:08:35;2.85;;;2.40;;
21903;SDS011;11116;51.554;7.812;2022-10-01T00:11:06;6.25;;;2.88;;
21903;SDS011;11116;51.554;7.812;2022-10-01T00:13:35;3.50;;;2.75;;
21903;SDS011;11116;51.554;7.812;2022-10-01T00:16:06;2.90;;;2.60;;
21903;SDS011;11116;51.554;7.812;2022-10-01T00:18:35;5.03;;;2.60;;
21903;SDS011;11116;51.554;7.812;2022-10-01T00:21:06;3.13;;;2.63;;
21903;SDS011;11116;51.554;7.812;2022-10-01T00:23:35;2.83;;;2.38;;
21903;SDS011;11116;51.554;7.812;2022-10-01T00:26:09;8.63;;;2.63;;
21903;SDS011;11116;51.554;7.812;2022-10-01T00:28:39;5.28;;;3.13;;
21903;SDS011;11116;51.554;7.812;2022-10-01T00:31:07;5.20;;;2.40;;
21903;SDS011;11116;51.554;7.812;2022-10-01T00:33:35;5.53;;;2.80;;
21903;SDS011;11116;51.554;7.812;2022-10-01T00:36:03;2.70;;;2.28;;
21903;SDS011;11116;51.554;7.812;2022-10-01T00:38:31;2.88;;;2.55;;
21903;SDS011;11116;51.554;7.812;2022-10-01T00:41:01;3.08;;;2.80;;
21903;SDS011;11116;51.554;7.812;2022-10-01T00:43:30;5.70;;;3.00;;
21903;SDS011;11116;51.554;7.812;2022-10-01T00:45:59;3.35;;;2.40;;
21903;SDS011;11116;51.554;7.812;2022-10-01T00:48:33;2.88;;;2.53;;
21903;SDS011;11116;51.554;7.812;2022-10-01T00:51:06;2.88;;;2.30;;
21903;SDS011;11116;51.554;7.812;2022-10-01T00:53:34;2.58;;;2.38;;
21903;SDS011;11116;51.554;7.812;2022-10-01T00:56:04;6.88;;;2.90;;
21903;SDS011;11116;51.554;7.812;2022-10-01T00:58:32;4.60;;;2.90;;
21903;SDS011;11116;51.554;7.812;2022-10-01T01:00:59;4.38;;;2.80;;
21903;SDS011;11116;51.554;7.812;2022-10-01T01:03:27;4.80;;;2.65;;
21903;SDS011;11116;51.554;7.812;2022-10-01T01:05:54;5.93;;;2.83;;
21903;SDS011;11116;51.554;7.812;2022-10-01T01:08:21;6.28;;;2.60;;
21903;SDS011;11116;51.554;7.812;2022-10-01T01:10:50;3.20;;;2.50;;
21903;SDS011;11116;51.554;7.812;2022-10-01T01:13:28;3.17;;;2.38;;
21903;SDS011;11116;51.554;7.812;2022-10-01T01:16:02;4.75;;;3.20;;
21903;SDS011;11116;51.554;7.812;2022-10-01T01:18:34;3.78;;;2.28;;
21903;SDS011;11116;51.554;7.812;2022-10-01T01:21:11;3.28;;;2.53;;
21903;SDS011;11116;51.554;7.812;2022-10-01T01:23:49;3.28;;;2.70;;
21903;SDS011;11116;51.554;7.812;2022-10-01T01:26:29;11.48;;;2.90;;
21903;SDS011;11116;51.554;7.812;2022-10-01T01:29:05;3.00;;;2.40;;
21903;SDS011;11116;51.554;7.812;2022-10-01T01:31:40;3.55;;;2.50;;
21903;SDS011;11116;51.554;7.812;2022-10-01T01:34:12;2.80;;;2.60;;
21903;SDS011;11116;51.554;7.812;2022-10-01T01:36:45;3.00;;;2.40;;
21903;SDS011;11116;51.554;7.812;2022-10-01T01:39:18;3.10;;;2.30;;
21903;SDS011;11116;51.554;7.812;2022-10-01T01:41:48;4.43;;;2.67;;
21903;SDS011;11116;51.554;7.812;2022-10-01T01:44:22;3.10;;;2.75;;
21903;SDS011;11116;51.554;7.812;2022-10-01T01:46:53;6.28;;;2.65;;
21903;SDS011;11116;51.554;7.812;2022-10-01T01:49:21;6.85;;;2.67;;
21903;SDS011;11116;51.554;7.812;2022-10-01T01:51:51;4.53;;;2.70;;
21903;SDS011;11116;51.554;7.812;2022-10-01T01:54:23;7.68;;;2.55;;
21903;SDS011;11116;51.554;7.812;2022-10-01T01:56:50;5.18;;;3.15;;
21903;SDS011;11116;51.554;7.812;2022-10-01T01:59:22;5.07;;;3.13;;
21903;SDS011;11116;51.554;7.812;2022-10-01T02:01:50;3.20;;;2.90;;
21903;SDS011;11116;51.554;7.812;2022-10-01T02:04:18;4.15;;;3.22;;
21903;SDS011;11116;51.554;7.812;2022-10-01T02:06:59;3.58;;;3.28;;
21903;SDS011;11116;51.554;7.812;2022-10-01T02:09:41;5.15;;;3.33;;
21903;SDS011;11116;51.554;7.812;2022-10-01T02:12:18;3.97;;;2.97;;
21903;SDS011;11116;51.554;7.812;2022-10-01T02:14:55;4.70;;;3.33;;
21903;SDS011;11116;51.554;7.812;2022-10-01T02:17:31;4.20;;;3.05;;
21903;SDS011;11116;51.554;7.812;2022-10-01T02:20:06;3.15;;;2.63;;
21903;SDS011;11116;51.554;7.812;2022-10-01T02:22:38;3.33;;;2.70;;
21903;SDS011;11116;51.554;7.812;2022-10-01T02:25:12;4.70;;;2.90;;
21903;SDS011;11116;51.554;7.812;2022-10-01T02:27:43;4.80;;;2.92;;
21903;SDS011;11116;51.554;7.812;2022-10-01T02:30:15;4.65;;;2.53;;
21903;SDS011;11116;51.554;7.812;2022-10-01T02:32:43;5.90;;;2.90;;
21903;SDS011;11116;51.554;7.812;2022-10-01T02:35:13;4.38;;;2.90;;
21903;SDS011;11116;51.554;7.812;2022-10-01T02:37:42;4.30;;;2.70;;
21903;SDS011;11116;51.554;7.812;2022-10-01T02:40:14;5.13;;;3.20;;
21903;SDS011;11116;51.554;7.812;2022-10-01T02:42:45;2.80;;;2.60;;
21903;SDS011;11116;51.554;7.812;2022-10-01T02:45:19;3.83;;;2.67;;
21903;SDS011;11116;51.554;7.812;2022-10-01T02:47:49;3.15;;;2.67;;
21903;SDS011;11116;51.554;7.812;2022-10-01T02:50:20;3.65;;;2.58;;
21903;SDS011;11116;51.554;7.812;2022-10-01T02:52:51;3.67;;;2.40;;
21903;SDS011;11116;51.554;7.812;2022-10-01T02:55:24;2.97;;;2.20;;
21903;SDS011;11116;51.554;7.812;2022-10-01T02:57:53;4.05;;;2.53;;
21903;SDS011;11116;51.554;7.812;2022-10-01T03:00:21;5.38;;;2.40;;
21903;SDS011;11116;51.554;7.812;2022-10-01T03:02:49;4.72;;;2.30;;
21903;SDS011;11116;51.554;7.812;2022-10-01T03:05:16;2.38;;;2.17;;
21903;SDS011;11116;51.554;7.812;2022-10-01T03:07:45;2.40;;;2.15;;
21903;SDS011;11116;51.554;7.812;2022-10-01T03:10:12;2.47;;;2.28;;
21903;SDS011;11116;51.554;7.812;2022-10-01T03:12:40;5.00;;;2.38;;
21903;SDS011;11116;51.554;7.812;2022-10-01T03:15:10;2.92;;;2.38;;
21903;SDS011;11116;51.554;7.812;2022-10-01T03:17:40;3.00;;;2.15;;
21903;SDS011;11116;51.554;7.812;2022-10-01T03:20:07;2.53;;;1.83;;
21903;SDS011;11116;51.554;7.812;2022-10-01T03:22:35;2.42;;;2.22;;
21903;SDS011;11116;51.554;7.812;2022-10-01T03:25:02;3.17;;;2.03;;
21903;SDS011;11116;51.554;7.812;2022-10-01T03:27:30;2.58;;;2.13;;
21903;SDS011;11116;51.554;7.812;2022-10-01T03:29:57;2.30;;;2.10;;
21903;SDS011;11116;51.554;7.812;2022-10-01T03:32:24;2.25;;;2.05;;
21903;SDS011;11116;51.554;7.812;2022-10-01T03:34:52;3.33;;;2.25;;
21903;SDS011;11116;51.554;7.812;2022-10-01T03:37:19;4.35;;;2.13;;
21903;SDS011;11116;51.554;7.812;2022-10-01T03:39:46;3.08;;;2.47;;
21903;SDS011;11116;51.554;7.812;2022-10-01T03:42:13;2.42;;;2.22;;
21903;SDS011;11116;51.554;7.812;2022-10-01T03:44:41;3.42;;;2.20;;
21903;SDS011;11116;51.554;7.812;2022-10-01T03:47:08;2.72;;;2.50;;
21903;SDS011;11116;51.554;7.812;2022-10-01T03:49:36;3.22;;;2.50;;
21903;SDS011;11116;51.554;7.812;2022-10-01T03:52:05;3.88;;;2.42;;
21903;SDS011;11116;51.554;7.812;2022-10-01T03:54:32;2.72;;;2.50;;
21903;SDS011;11116;51.554;7.812;2022-10-01T03:56:59;2.58;;;2.35;;
21903;SDS011;11116;51.554;7.812;2022-10-01T03:59:26;2.53;;;2.33;;
21903;SDS011;11116;51.554;7.812;2022-10-01T04:01:53;2.58;;;2.30;;
21903;SDS011;11116;51.554;7.812;2022-10-01T04:04:20;3.05;;;2.78;;
21903;SDS011;11116;51.554;7.812;2022-10-01T04:06:47;2.20;;;2.10;;
21903;SDS011;11116;51.554;7.812;2022-10-01T04:09:15;8.43;;;2.33;;
21903;SDS011;11116;51.554;7.812;2022-10-01T04:11:42;2.42;;;2.22;;
21903;SDS011;11116;51.554;7.812;2022-10-01T04:14:09;3.22;;;2.60;;
21903;SDS011;11116;51.554;7.812;2022-10-01T04:16:36;3.15;;;2.25;;
21903;SDS011;11116;51.554;7.812;2022-10-01T04:19:03;2.50;;;2.28;;
21903;SDS011;11116;51.554;7.812;2022-10-01T04:21:30;2.65;;;2.22;;
21903;SDS011;11116;51.554;7.812;2022-10-01T04:23:57;3.65;;;2.25;;
21903;SDS011;11116;51.554;7.812;2022-10-01T04:26:26;2.13;;;1.88;;
21903;SDS011;11116;51.554;7.812;2022-10-01T04:28:53;2.50;;;1.83;;
21903;SDS011;11116;51.554;7.812;2022-10-01T04:31:20;5.32;;;2.67;;
21903;SDS011;11116;51.554;7.812;2022-10-01T04:33:50;2.30;;;2.00;;
21903;SDS011;11116;51.554;7.812;2022-10-01T04:36:17;1.80;;;1.70;;
21903;SDS011;11116;51.554;7.812;2022-10-01T04:38:44;1.75;;;1.65;;
21903;SDS011;11116;51.554;7.812;2022-10-01T04:41:11;1.70;;;1.60;;
21903;SDS011;11116;51.554;7.812;2022-10-01T04:43:40;1.55;;;1.38;;
21903;SDS011;11116;51.554;7.812;2022-10-01T04:46:07;1.40;;;1.30;;
21903;SDS011;11116;51.554;7.812;2022-10-01T04:48:34;1.42;;;1.30;;
21903;SDS011;11116;51.554;7.812;2022-10-01T04:51:01;1.35;;;1.25;;
21903;SDS011;11116;51.554;7.812;2022-10-01T04:53:28;2.20;;;1.40;;
21903;SDS011;11116;51.554;7.812;2022-10-01T04:55:55;1.30;;;1.20;;
21903;SDS011;11116;51.554;7.812;2022-10-01T04:58:22;3.08;;;1.10;;
21903;SDS011;11116;51.554;7.812;2022-10-01T05:00:50;1.20;;;1.13;;
21903;SDS011;11116;51.554;7.812;2022-10-01T05:03:17;1.58;;;1.30;;
21903;SDS011;11116;51.554;7.812;2022-10-01T05:05:44;2.85;;;1.10;;
21903;SDS011;11116;51.554;7.812;2022-10-01T05:08:11;0.95;;;0.90;;
21903;SDS011;11116;51.554;7.812;2022-10-01T05:10:38;0.93;;;0.90;;
21903;SDS011;11116;51.554;7.812;2022-10-01T05:13:05;1.15;;;0.90;;
21903;SDS011;11116;51.554;7.812;2022-10-01T05:15:31;1.00;;;1.00;;
21903;SDS011;11116;51.554;7.812;2022-10-01T05:18:01;0.95;;;0.93;;
21903;SDS011;11116;51.554;7.812;2022-10-01T05:20:28;1.40;;;1.10;;
21903;SDS011;11116;51.554;7.812;2022-10-01T05:22:55;0.85;;;0.85;;
21903;SDS011;11116;51.554;7.812;2022-10-01T05:25:22;1.90;;;0.90;;
21903;SDS011;11116;51.554;7.812;2022-10-01T05:27:49;0.68;;;0.68;;
21903;SDS011;11116;51.554;7.812;2022-10-01T05:30:16;1.50;;;0.80;;
21903;SDS011;11116;51.554;7.812;2022-10-01T05:32:54;0.82;;;0.82;;
21903;SDS011;11116;51.554;7.812;2022-10-01T05:35:24;1.02;;;0.90;;
21903;SDS011;11116;51.554;7.812;2022-10-01T05:37:52;1.45;;;0.90;;
21903;SDS011;11116;51.554;7.812;2022-10-01T05:40:19;0.73;;;0.73;;
21903;SDS011;11116;51.554;7.812;2022-10-01T05:42:47;0.88;;;0.88;;
21903;SDS011;11116;51.554;7.812;2022-10-01T05:45:13;0.60;;;0.60;;
21903;SDS011;11116;51.554;7.812;2022-10-01T05:47:45;0.63;;;0.63;;
21903;SDS011;11116;51.554;7.812;2022-10-01T05:50:13;0.90;;;0.90;;
21903;SDS011;11116;51.554;7.812;2022-10-01T05:52:47;1.33;;;0.70;;
21903;SDS011;11116;51.554;7.812;2022-10-01T05:55:17;0.98;;;0.95;;
21903;SDS011;11116;51.554;7.812;2022-10-01T05:57:51;0.70;;;0.70;;
21903;SDS011;11116;51.554;7.812;2022-10-01T06:00:19;0.88;;;0.80;;
21903;SDS011;11116;51.554;7.812;2022-10-01T06:02:48;0.80;;;0.80;;
21903;SDS011;11116;51.554;7.812;2022-10-01T06:05:16;0.60;;;0.60;;
21903;SDS011;11116;51.554;7.812;2022-10-01T06:07:43;0.57;;;0.57;;
21903;SDS011;11116;51.554;7.812;2022-10-01T06:10:11;0.70;;;0.70;;
21903;SDS011;11116;51.554;7.812;2022-10-01T06:12:38;1.35;;;0.90;;
21903;SDS011;11116;51.554;7.812;2022-10-01T06:15:06;1.00;;;0.85;;
21903;SDS011;11116;51.554;7.812;2022-10-01T06:17:34;1.52;;;0.70;;
21903;SDS011;11116;51.554;7.812;2022-10-01T06:20:04;0.70;;;0.70;;
21903;SDS011;11116;51.554;7.812;2022-10-01T06:22:32;3.30;;;0.70;;
21903;SDS011;11116;51.554;7.812;2022-10-01T06:24:59;0.68;;;0.55;;
21903;SDS011;11116;51.554;7.812;2022-10-01T06:27:27;1.25;;;0.60;;
21903;SDS011;11116;51.554;7.812;2022-10-01T06:29:54;2.63;;;0.50;;
21903;SDS011;11116;51.554;7.812;2022-10-01T06:32:21;0.60;;;0.60;;
21903;SDS011;11116;51.554;7.812;2022-10-01T06:34:48;1.38;;;0.60;;
21903;SDS011;11116;51.554;7.812;2022-10-01T06:37:15;0.43;;;0.43;;
21903;SDS011;11116;51.554;7.812;2022-10-01T06:39:42;0.40;;;0.40;;
21903;SDS011;11116;51.554;7.812;2022-10-01T06:42:09;0.45;;;0.40;;
21903;SDS011;11116;51.554;7.812;2022-10-01T06:44:38;0.50;;;0.50;;
21903;SDS011;11116;51.554;7.812;2022-10-01T06:47:06;2.22;;;0.50;;
21903;SDS011;11116;51.554;7.812;2022-10-01T06:49:33;0.95;;;0.50;;
21903;SDS011;11116;51.554;7.812;2022-10-01T06:52:00;3.13;;;0.55;;
21903;SDS011;11116;51.554;7.812;2022-10-01T06:54:45;0.65;;;0.65;;
21903;SDS011;11116;51.554;7.812;2022-10-01T06:57:12;0.40;;;0.40;;
21903;SDS011;11116;51.554;7.812;2022-10-01T06:59:44;1.10;;;0.40;;
21903;SDS011;11116;51.554;7.812;2022-10-01T07:02:14;0.40;;;0.40;;
21903;SDS011;11116;51.554;7.812;2022-10-01T07:04:46;0.40;;;0.40;;
21903;SDS011;11116;51.554;7.812;2022-10-01T07:07:13;0.30;;;0.30;;
21903;SDS011;11116;51.554;7.812;2022-10-01T07:09:40;0.40;;;0.40;;
21903;SDS011;11116;51.554;7.812;2022-10-01T07:12:07;0.65;;;0.52;;
21903;SDS011;11116;51.554;7.812;2022-10-01T07:14:34;2.17;;;1.23;;
21903;SDS011;11116;51.554;7.812;2022-10-01T07:17:03;0.30;;;0.30;;
21903;SDS011;11116;51.554;7.812;2022-10-01T07:19:30;1.02;;;0.50;;
21903;SDS011;11116;51.554;7.812;2022-10-01T07:21:57;0.38;;;0.38;;
21903;SDS011;11116;51.554;7.812;2022-10-01T07:24:23;0.43;;;0.43;;
21903;SDS011;11116;51.554;7.812;2022-10-01T07:26:50;0.88;;;0.88;;
21903;SDS011;11116;51.554;7.812;2022-10-01T07:29:20;3.28;;;1.13;;
21903;SDS011;11116;51.554;7.812;2022-10-01T07:31:48;0.40;;;0.40;;
21903;SDS011;11116;51.554;7.812;2022-10-01T07:34:16;0.30;;;0.30;;
21903;SDS011;11116;51.554;7.812;2022-10-01T07:36:43;0.77;;;0.70;;
21903;SDS011;11116;51.554;7.812;2022-10-01T07:39:10;0.68;;;0.60;;
21903;SDS011;11116;51.554;7.812;2022-10-01T07:41:37;1.50;;;1.00;;
21903;SDS011;11116;51.554;7.812;2022-10-01T07:44:04;1.95;;;0.60;;
21903;SDS011;11116;51.554;7.812;2022-10-01T07:46:31;0.40;;;0.40;;
21903;SDS011;11116;51.554;7.812;2022-10-01T07:48:58;0.70;;;0.70;;
21903;SDS011;11116;51.554;7.812;2022-10-01T07:51:26;0.68;;;0.50;;
21903;SDS011;11116;51.554;7.812;2022-10-01T07:53:53;1.05;;;0.70;;
21903;SDS011;11116;51.554;7.812;2022-10-01T07:56:20;0.63;;;0.63;;
21903;SDS011;11116;51.554;7.812;2022-10-01T07:58:47;0.60;;;0.60;;
21903;SDS011;11116;51.554;7.812;2022-10-01T08:01:14;1.63;;;0.90;;
21903;SDS011;11116;51.554;7.812;2022-10-01T08:03:42;0.70;;;0.70;;
21903;SDS011;11116;51.554;7.812;2022-10-01T08:06:10;0.73;;;0.60;;
21903;SDS011;11116;51.554;7.812;2022-10-01T08:08:39;2.10;;;1.45;;
21903;SDS011;11116;51.554;7.812;2022-10-01T08:11:06;0.80;;;0.80;;
21903;SDS011;11116;51.554;7.812;2022-10-01T08:13:34;0.70;;;0.70;;
21903;SDS011;11116;51.554;7.812;2022-10-01T08:16:05;1.00;;;0.90;;
21903;SDS011;11116;51.554;7.812;2022-10-01T08:18:34;2.53;;;1.00;;
21903;SDS011;11116;51.554;7.812;2022-10-01T08:21:01;1.17;;;1.08;;
21903;SDS011;11116;51.554;7.812;2022-10-01T08:23:29;0.90;;;0.90;;
21903;SDS011;11116;51.554;7.812;2022-10-01T08:25:59;1.63;;;1.10;;
21903;SDS011;11116;51.554;7.812;2022-10-01T08:28:27;0.82;;;0.82;;
21903;SDS011;11116;51.554;7.812;2022-10-01T08:30:54;1.10;;;1.10;;
21903;SDS011;11116;51.554;7.812;2022-10-01T08:33:21;1.75;;;1.08;;
21903;SDS011;11116;51.554;7.812;2022-10-01T08:35:49;1.30;;;1.20;;
21903;SDS011;11116;51.554;7.812;2022-10-01T08:38:16;1.58;;;1.20;;
21903;SDS011;11116;51.554;7.812;2022-10-01T08:40:45;1.30;;;1.20;;
21903;SDS011;11116;51.554;7.812;2022-10-01T08:43:27;1.48;;;1.45;;
21903;SDS011;11116;51.554;7.812;2022-10-01T08:45:56;11.93;;;4.75;;
21903;SDS011;11116;51.554;7.812;2022-10-01T08:48:29;1.67;;;1.58;;
21903;SDS011;11116;51.554;7.812;2022-10-01T08:51:04;4.50;;;1.30;;
21903;SDS011;11116;51.554;7.812;2022-10-01T08:53:36;3.15;;;1.98;;
21903;SDS011;11116;51.554;7.812;2022-10-01T08:56:12;2.58;;;1.40;;
21903;SDS011;11116;51.554;7.812;2022-10-01T08:58:47;1.30;;;1.20;;
21903;SDS011;11116;51.554;7.812;2022-10-01T09:01:21;3.53;;;1.42;;
21903;SDS011;11116;51.554;7.812;2022-10-01T09:03:49;2.28;;;1.60;;
21903;SDS011;11116;51.554;7.812;2022-10-01T09:06:17;1.45;;;1.30;;
21903;SDS011;11116;51.554;7.812;2022-10-01T09:08:52;1.77;;;1.25;;
21903;SDS011;11116;51.554;7.812;2022-10-01T09:11:34;1.25;;;1.17;;
21903;SDS011;11116;51.554;7.812;2022-10-01T09:14:18;2.85;;;1.55;;
21903;SDS011;11116;51.554;7.812;2022-10-01T09:16:55;1.50;;;1.40;;
21903;SDS011;11116;51.554;7.812;2022-10-01T09:19:33;6.45;;;1.77;;
21903;SDS011;11116;51.554;7.812;2022-10-01T09:22:14;2.78;;;2.00;;
21903;SDS011;11116;51.554;7.812;2022-10-01T09:24:53;3.83;;;2.28;;
21903;SDS011;11116;51.554;7.812;2022-10-01T09:27:27;1.70;;;1.42;;
21903;SDS011;11116;51.554;7.812;2022-10-01T09:29:56;4.20;;;1.70;;
21903;SDS011;11116;51.554;7.812;2022-10-01T09:32:27;2.05;;;1.30;;
21903;SDS011;11116;51.554;7.812;2022-10-01T09:34:59;1.33;;;1.23;;
21903;SDS011;11116;51.554;7.812;2022-10-01T09:37:36;2.35;;;1.60;;
21903;SDS011;11116;51.554;7.812;2022-10-01T09:40:12;1.92;;;1.30;;
21903;SDS011;11116;51.554;7.812;2022-10-01T09:42:42;2.47;;;1.75;;
21903;SDS011;11116;51.554;7.812;2022-10-01T09:45:11;1.83;;;1.30;;
21903;SDS011;11116;51.554;7.812;2022-10-01T09:47:40;2.28;;;1.63;;
21903;SDS011;11116;51.554;7.812;2022-10-01T09:50:11;3.22;;;2.25;;
21903;SDS011;11116;51.554;7.812;2022-10-01T09:52:42;2.15;;;1.40;;
21903;SDS011;11116;51.554;7.812;2022-10-01T09:55:18;3.45;;;1.73;;
21903;SDS011;11116;51.554;7.812;2022-10-01T09:57:55;1.50;;;1.40;;
21903;SDS011;11116;51.554;7.812;2022-10-01T10:00:28;2.78;;;1.55;;
21903;SDS011;11116;51.554;7.812;2022-10-01T10:02:55;2.78;;;1.75;;
21903;SDS011;11116;51.554;7.812;2022-10-01T10:05:22;2.05;;;1.70;;
21903;SDS011;11116;51.554;7.812;2022-10-01T10:07:52;4.68;;;2.08;;
21903;SDS011;11116;51.554;7.812;2022-10-01T10:10:21;1.83;;;1.65;;
21903;SDS011;11116;51.554;7.812;2022-10-01T10:12:53;3.40;;;1.60;;
21903;SDS011;11116;51.554;7.812;2022-10-01T10:15:22;5.63;;;2.10;;
21903;SDS011;11116;51.554;7.812;2022-10-01T10:17:52;2.08;;;1.83;;
21903;SDS011;11116;51.554;7.812;2022-10-01T10:20:22;1.92;;;1.83;;
21903;SDS011;11116;51.554;7.812;2022-10-01T10:22:53;2.33;;;2.22;;
21903;SDS011;11116;51.554;7.812;2022-10-01T10:25:30;4.13;;;2.00;;
21903;SDS011;11116;51.554;7.812;2022-10-01T10:27:57;3.22;;;2.22;;
21903;SDS011;11116;51.554;7.812;2022-10-01T10:30:26;2.00;;;1.90;;
21903;SDS011;11116;51.554;7.812;2022-10-01T10:33:02;3.63;;;2.50;;
21903;SDS011;11116;51.554;7.812;2022-10-01T10:35:31;2.78;;;2.50;;
21903;SDS011;11116;51.554;7.812;2022-10-01T10:37:59;6.88;;;2.72;;
21903;SDS011;11116;51.554;7.812;2022-10-01T10:40:29;4.10;;;2.90;;
21903;SDS011;11116;51.554;7.812;2022-10-01T10:43:00;5.13;;;2.88;;
21903;SDS011;11116;51.554;7.812;2022-10-01T10:45:29;3.30;;;2.70;;
21903;SDS011;11116;51.554;7.812;2022-10-01T10:48:00;5.22;;;2.60;;
21903;SDS011;11116;51.554;7.812;2022-10-01T10:50:32;3.30;;;2.70;;
21903;SDS011;11116;51.554;7.812;2022-10-01T10:53:16;3.08;;;2.50;;
21903;SDS011;11116;51.554;7.812;2022-10-01T10:55:53;4.78;;;2.78;;
21903;SDS011;11116;51.554;7.812;2022-10-01T10:58:23;5.20;;;2.97;;
21903;SDS011;11116;51.554;7.812;2022-10-01T11:00:51;6.38;;;2.88;;
21903;SDS011;11116;51.554;7.812;2022-10-01T11:03:22;3.00;;;2.47;;
21903;SDS011;11116;51.554;7.812;2022-10-01T11:05:52;4.28;;;2.38;;
21903;SDS011;11116;51.554;7.812;2022-10-01T11:08:22;2.97;;;2.50;;
21903;SDS011;11116;51.554;7.812;2022-10-01T11:10:55;2.95;;;2.75;;
21903;SDS011;11116;51.554;7.812;2022-10-01T11:13:40;2.38;;;2.10;;
21903;SDS011;11116;51.554;7.812;2022-10-01T11:16:23;2.55;;;1.73;;
21903;SDS011;11116;51.554;7.812;2022-10-01T11:22:03;5.78;;;1.70;;
21903;SDS011;11116;51.554;7.812;2022-10-01T11:27:47;1.30;;;1.20;;
21903;SDS011;11116;51.554;7.812;2022-10-01T11:30:19;1.08;;;1.08;;
21903;SDS011;11116;51.554;7.812;2022-10-01T11:32:51;1.05;;;1.05;;
21903;SDS011;11116;51.554;7.812;2022-10-01T11:35:32;1.80;;;1.58;;
21903;SDS011;11116;51.554;7.812;2022-10-01T11:38:21;4.25;;;1.80;;
21903;SDS011;11116;51.554;7.812;2022-10-01T11:41:03;2.45;;;1.85;;
21903;SDS011;11116;51.554;7.812;2022-10-01T11:43:40;1.88;;;1.55;;
21903;SDS011;11116;51.554;7.812;2022-10-01T11:46:11;2.50;;;1.23;;
21903;SDS011;11116;51.554;7.812;2022-10-01T11:48:43;3.67;;;1.42;;
21903;SDS011;11116;51.554;7.812;2022-10-01T11:51:16;2.22;;;1.23;;
21903;SDS011;11116;51.554;7.812;2022-10-01T11:53:48;2.13;;;0.88;;
21903;SDS011;11116;51.554;7.812;2022-10-01T11:56:21;2.25;;;1.25;;
21903;SDS011;11116;51.554;7.812;2022-10-01T11:59:12;3.15;;;1.17;;
21903;SDS011;11116;51.554;7.812;2022-10-01T12:01:48;2.05;;;1.50;;
21903;SDS011;11116;51.554;7.812;2022-10-01T12:04:26;2.78;;;1.30;;
21903;SDS011;11116;51.554;7.812;2022-10-01T12:07:00;4.07;;;1.70;;
21903;SDS011;11116;51.554;7.812;2022-10-01T12:09:38;4.40;;;1.85;;
21903;SDS011;11116;51.554;7.812;2022-10-01T12:12:15;4.38;;;1.60;;
21903;SDS011;11116;51.554;7.812;2022-10-01T12:14:44;3.88;;;1.55;;
21903;SDS011;11116;51.554;7.812;2022-10-01T12:17:18;2.97;;;1.80;;
21903;SDS011;11116;51.554;7.812;2022-10-01T12:19:52;6.25;;;3.53;;
21903;SDS011;11116;51.554;7.812;2022-10-01T12:22:24;5.05;;;2.20;;
21903;SDS011;11116;51.554;7.812;2022-10-01T12:24:55;6.40;;;2.17;;
21903;SDS011;11116;51.554;7.812;2022-10-01T12:27:34;5.97;;;2.40;;
21903;SDS011;11116;51.554;7.812;2022-10-01T12:30:09;2.83;;;2.25;;
21903;SDS011;11116;51.554;7.812;2022-10-01T12:32:42;7.80;;;2.47;;
21903;SDS011;11116;51.554;7.812;2022-10-01T12:35:21;4.25;;;2.13;;
21903;SDS011;11116;51.554;7.812;2022-10-01T12:38:04;5.97;;;2.40;;
21903;SDS011;11116;51.554;7.812;2022-10-01T12:40:44;3.72;;;0.98;;
21903;SDS011;11116;51.554;7.812;2022-10-01T12:46:19;1.27;;;0.60;;
21903;SDS011;11116;51.554;7.812;2022-10-01T12:48:56;3.15;;;1.00;;
21903;SDS011;11116;51.554;7.812;2022-10-01T12:51:39;3.65;;;1.20;;
21903;SDS011;11116;51.554;7.812;2022-10-01T12:54:18;1.80;;;1.10;;
21903;SDS011;11116;51.554;7.812;2022-10-01T12:56:59;3.35;;;1.15;;
21903;SDS011;11116;51.554;7.812;2022-10-01T12:59:40;3.90;;;1.45;;
21903;SDS011;11116;51.554;7.812;2022-10-01T13:02:21;4.55;;;1.70;;
21903;SDS011;11116;51.554;7.812;2022-10-01T13:05:16;4.82;;;0.80;;
21903;SDS011;11116;51.554;7.812;2022-10-01T13:07:51;5.32;;;1.50;;
21903;SDS011;11116;51.554;7.812;2022-10-01T13:10:45;2.35;;;0.93;;
21903;SDS011;11116;51.554;7.812;2022-10-01T13:13:18;2.15;;;1.13;;
21903;SDS011;11116;51.554;7.812;2022-10-01T13:15:50;1.95;;;1.00;;
21903;SDS011;11116;51.554;7.812;2022-10-01T13:18:25;5.53;;;1.38;;
21903;SDS011;11116;51.554;7.812;2022-10-01T13:21:03;3.75;;;1.30;;
21903;SDS011;11116;51.554;7.812;2022-10-01T13:23:37;5.72;;;1.65;;
21903;SDS011;11116;51.554;7.812;2022-10-01T13:26:11;2.10;;;1.55;;
21903;SDS011;11116;51.554;7.812;2022-10-01T13:28:49;4.55;;;1.83;;
21903;SDS011;11116;51.554;7.812;2022-10-01T13:31:30;3.75;;;1.40;;
21903;SDS011;11116;51.554;7.812;2022-10-01T13:34:00;3.20;;;1.75;;
21903;SDS011;11116;51.554;7.812;2022-10-01T13:36:28;4.78;;;1.92;;
21903;SDS011;11116;51.554;7.812;2022-10-01T13:38:55;5.68;;;2.47;;
21903;SDS011;11116;51.554;7.812;2022-10-01T13:41:24;6.43;;;2.45;;
21903;SDS011;11116;51.554;7.812;2022-10-01T13:43:55;6.88;;;2.63;;
21903;SDS011;11116;51.554;7.812;2022-10-01T13:46:25;6.72;;;2.60;;
21903;SDS011;11116;51.554;7.812;2022-10-01T13:48:55;4.97;;;2.58;;
21903;SDS011;11116;51.554;7.812;2022-10-01T13:51:37;8.73;;;2.25;;
21903;SDS011;11116;51.554;7.812;2022-10-01T13:54:05;6.78;;;1.80;;
21903;SDS011;11116;51.554;7.812;2022-10-01T13:56:41;5.82;;;1.40;;
21903;SDS011;11116;51.554;7.812;2022-10-01T13:59:20;3.72;;;1.63;;
21903;SDS011;11116;51.554;7.812;2022-10-01T14:01:55;5.38;;;1.63;;
21903;SDS011;11116;51.554;7.812;2022-10-01T14:04:24;7.15;;;1.58;;
21903;SDS011;11116;51.554;7.812;2022-10-01T14:07:00;7.80;;;1.83;;
21903;SDS011;11116;51.554;7.812;2022-10-01T14:09:30;5.00;;;1.50;;
21903;SDS011;11116;51.554;7.812;2022-10-01T14:12:02;8.85;;;1.63;;
21903;SDS011;11116;51.554;7.812;2022-10-01T14:14:51;6.13;;;2.53;;
21903;SDS011;11116;51.554;7.812;2022-10-01T14:17:39;5.40;;;2.13;;
21903;SDS011;11116;51.554;7.812;2022-10-01T14:20:15;9.63;;;2.20;;
21903;SDS011;11116;51.554;7.812;2022-10-01T14:22:46;8.52;;;2.65;;
21903;SDS011;11116;51.554;7.812;2022-10-01T14:28:23;6.63;;;2.13;;
21903;SDS011;11116;51.554;7.812;2022-10-01T14:30:57;6.03;;;1.50;;
21903;SDS011;11116;51.554;7.812;2022-10-01T14:33:38;6.30;;;1.88;;
21903;SDS011;11116;51.554;7.812;2022-10-01T14:36:26;4.20;;;1.63;;
21903;SDS011;11116;51.554;7.812;2022-10-01T14:41:47;9.23;;;1.88;;
21903;SDS011;11116;51.554;7.812;2022-10-01T14:44:18;6.63;;;2.10;;
21903;SDS011;11116;51.554;7.812;2022-10-01T14:46:47;5.07;;;1.70;;
21903;SDS011;11116;51.554;7.812;2022-10-01T14:49:18;11.25;;;2.33;;
21903;SDS011;11116;51.554;7.812;2022-10-01T14:51:51;7.53;;;2.05;;
21903;SDS011;11116;51.554;7.812;2022-10-01T14:54:20;9.95;;;2.08;;
21903;SDS011;11116;51.554;7.812;2022-10-01T14:56:48;4.70;;;1.83;;
21903;SDS011;11116;51.554;7.812;2022-10-01T14:59:19;9.07;;;2.08;;
21903;SDS011;11116;51.554;7.812;2022-10-01T15:01:55;2.72;;;1.65;;
21903;SDS011;11116;51.554;7.812;2022-10-01T15:04:23;5.35;;;1.83;;
21903;SDS011;11116;51.554;7.812;2022-10-01T15:06:50;12.88;;;2.47;;
21903;SDS011;11116;51.554;7.812;2022-10-01T15:09:17;9.40;;;2.40;;
21903;SDS011;11116;51.554;7.812;2022-10-01T15:11:45;8.82;;;2.58;;
21903;SDS011;11116;51.554;7.812;2022-10-01T15:14:15;6.57;;;2.28;;
21903;SDS011;11116;51.554;7.812;2022-10-01T15:16:45;12.88;;;3.08;;
21903;SDS011;11116;51.554;7.812;2022-10-01T15:19:14;9.63;;;2.10;;
21903;SDS011;11116;51.554;7.812;2022-10-01T15:21:44;10.88;;;1.98;;
21903;SDS011;11116;51.554;7.812;2022-10-01T15:24:18;11.10;;;2.22;;
21903;SDS011;11116;51.554;7.812;2022-10-01T15:26:50;5.30;;;2.00;;